sensor_id;sensor_type;location;lat;lon;timestamp;P1;durP1;ratioP1;P2;durP2;ratioP2
41426;SDS011;27171;51.812;19.514;2023-12-04T00:00:29;30.92;;;19.65;;
41426;SDS011;27171;51.812;19.514;2023-12-04T00:03:30;29.85;;;19.63;;
41426;SDS011;27171;51.812;19.514;2023-12-04T00:06:31;28.20;;;19.00;;
41426;SDS011;27171;51.812;19.514;2023-12-04T00:09:32;27.00;;;17.55;;
41426;SDS011;27171;51.812;19.514;2023-12-04T00:12:34;26.73;;;17.50;;
41426;SDS011;27171;51.812;19.514;2023-12-04T00:15:35;25.85;;;17.33;;
41426;SDS011;27171;51.812;19.514;2023-12-04T00:18:36;24.60;;;16.85;;
41426;SDS011;27171;51.812;19.514;2023-12-04T00:21:37;23.58;;;15.55;;
41426;SDS011;27171;51.812;19.514;2023-12-04T00:24:38;22.92;;;15.68;;
41426;SDS011;27171;51.812;19.514;2023-12-04T00:27:40;23.30;;;15.77;;
41426;SDS011;27171;51.812;19.514;2023-12-04T00:30:41;26.23;;;18.00;;
41426;SDS011;27171;51.812;19.514;2023-12-04T00:33:42;23.42;;;15.60;;
41426;SDS011;27171;51.812;19.514;2023-12-04T00:36:44;24.38;;;15.57;;
41426;SDS011;27171;51.812;19.514;2023-12-04T00:39:45;20.63;;;14.20;;
41426;SDS011;27171;51.812;19.514;2023-12-04T00:42:46;22.40;;;14.88;;
41426;SDS011;27171;51.812;19.514;2023-12-04T00:45:47;21.88;;;14.73;;
41426;SDS011;27171;51.812;19.514;2023-12-04T00:48:48;22.75;;;15.88;;
41426;SDS011;27171;51.812;19.514;2023-12-04T00:51:50;24.27;;;15.18;;
41426;SDS011;27171;51.812;19.514;2023-12-04T00:54:51;20.98;;;13.88;;
41426;SDS011;27171;51.812;19.514;2023-12-04T00:57:52;19.73;;;14.60;;
41426;SDS011;27171;51.812;19.514;2023-12-04T01:00:53;21.70;;;15.13;;
41426;SDS011;27171;51.812;19.514;2023-12-04T01:03:55;22.30;;;14.85;;
41426;SDS011;27171;51.812;19.514;2023-12-04T01:06:56;22.98;;;15.27;;
41426;SDS011;27171;51.812;19.514;2023-12-04T01:09:57;26.30;;;17.10;;
41426;SDS011;27171;51.812;19.514;2023-12-04T01:12:58;21.90;;;15.02;;
41426;SDS011;27171;51.812;19.514;2023-12-04T01:15:59;23.08;;;15.70;;
41426;SDS011;27171;51.812;19.514;2023-12-04T01:19:00;22.92;;;15.88;;
41426;SDS011;27171;51.812;19.514;2023-12-04T01:22:02;23.48;;;14.68;;
41426;SDS011;27171;51.812;19.514;2023-12-04T01:25:03;20.05;;;14.65;;
41426;SDS011;27171;51.812;19.514;2023-12-04T01:28:05;20.98;;;13.93;;
41426;SDS011;27171;51.812;19.514;2023-12-04T01:31:06;18.73;;;13.75;;
41426;SDS011;27171;51.812;19.514;2023-12-04T01:34:07;20.90;;;14.88;;
41426;SDS011;27171;51.812;19.514;2023-12-04T01:37:09;21.83;;;14.52;;
41426;SDS011;27171;51.812;19.514;2023-12-04T01:40:10;23.98;;;15.85;;
41426;SDS011;27171;51.812;19.514;2023-12-04T01:43:12;22.83;;;16.05;;
41426;SDS011;27171;51.812;19.514;2023-12-04T01:46:13;29.13;;;18.33;;
41426;SDS011;27171;51.812;19.514;2023-12-04T01:49:17;22.75;;;16.17;;
41426;SDS011;27171;51.812;19.514;2023-12-04T01:52:18;25.42;;;16.25;;
41426;SDS011;27171;51.812;19.514;2023-12-04T01:55:20;22.42;;;15.40;;
41426;SDS011;27171;51.812;19.514;2023-12-04T01:58:22;22.77;;;14.20;;
41426;SDS011;27171;51.812;19.514;2023-12-04T02:01:23;19.02;;;13.27;;
41426;SDS011;27171;51.812;19.514;2023-12-04T02:04:25;23.98;;;15.15;;
41426;SDS011;27171;51.812;19.514;2023-12-04T02:07:26;28.83;;;18.17;;
41426;SDS011;27171;51.812;19.514;2023-12-04T02:10:27;25.75;;;17.35;;
41426;SDS011;27171;51.812;19.514;2023-12-04T02:13:28;24.65;;;16.40;;
41426;SDS011;27171;51.812;19.514;2023-12-04T02:16:30;27.95;;;17.45;;
41426;SDS011;27171;51.812;19.514;2023-12-04T02:19:34;28.83;;;18.55;;
41426;SDS011;27171;51.812;19.514;2023-12-04T02:22:35;30.80;;;19.92;;
41426;SDS011;27171;51.812;19.514;2023-12-04T02:25:38;28.05;;;17.38;;
41426;SDS011;27171;51.812;19.514;2023-12-04T02:28:39;29.48;;;17.98;;
41426;SDS011;27171;51.812;19.514;2023-12-04T02:31:41;28.58;;;18.20;;
41426;SDS011;27171;51.812;19.514;2023-12-04T02:34:44;28.77;;;19.60;;
41426;SDS011;27171;51.812;19.514;2023-12-04T02:37:47;29.00;;;17.98;;
41426;SDS011;27171;51.812;19.514;2023-12-04T02:40:50;31.17;;;19.40;;
41426;SDS011;27171;51.812;19.514;2023-12-04T02:43:51;33.55;;;21.58;;
41426;SDS011;27171;51.812;19.514;2023-12-04T02:46:52;29.83;;;19.42;;
41426;SDS011;27171;51.812;19.514;2023-12-04T02:49:53;30.75;;;18.42;;
41426;SDS011;27171;51.812;19.514;2023-12-04T02:52:55;31.30;;;20.23;;
41426;SDS011;27171;51.812;19.514;2023-12-04T02:55:56;30.67;;;19.45;;
41426;SDS011;27171;51.812;19.514;2023-12-04T02:58:57;28.77;;;18.13;;
41426;SDS011;27171;51.812;19.514;2023-12-04T03:01:58;26.92;;;17.67;;
41426;SDS011;27171;51.812;19.514;2023-12-04T03:04:59;25.88;;;16.40;;
41426;SDS011;27171;51.812;19.514;2023-12-04T03:08:01;27.52;;;17.30;;
41426;SDS011;27171;51.812;19.514;2023-12-04T03:11:02;27.38;;;17.98;;
41426;SDS011;27171;51.812;19.514;2023-12-04T03:14:03;31.20;;;19.15;;
41426;SDS011;27171;51.812;19.514;2023-12-04T03:17:04;31.85;;;18.60;;
41426;SDS011;27171;51.812;19.514;2023-12-04T03:20:06;31.55;;;17.73;;
41426;SDS011;27171;51.812;19.514;2023-12-04T03:23:07;33.60;;;19.10;;
41426;SDS011;27171;51.812;19.514;2023-12-04T03:26:08;32.10;;;18.83;;
41426;SDS011;27171;51.812;19.514;2023-12-04T03:29:10;28.55;;;17.10;;
41426;SDS011;27171;51.812;19.514;2023-12-04T03:32:11;29.42;;;18.45;;
41426;SDS011;27171;51.812;19.514;2023-12-04T03:35:12;28.20;;;17.92;;
41426;SDS011;27171;51.812;19.514;2023-12-04T03:38:14;29.48;;;17.77;;
41426;SDS011;27171;51.812;19.514;2023-12-04T03:41:15;32.33;;;17.48;;
41426;SDS011;27171;51.812;19.514;2023-12-04T03:44:17;31.13;;;17.80;;
41426;SDS011;27171;51.812;19.514;2023-12-04T03:47:18;29.80;;;17.92;;
41426;SDS011;27171;51.812;19.514;2023-12-04T03:50:19;34.20;;;19.52;;
41426;SDS011;27171;51.812;19.514;2023-12-04T03:53:20;31.65;;;18.10;;
41426;SDS011;27171;51.812;19.514;2023-12-04T03:56:21;33.38;;;18.25;;
41426;SDS011;27171;51.812;19.514;2023-12-04T03:59:22;29.13;;;17.05;;
41426;SDS011;27171;51.812;19.514;2023-12-04T04:02:24;31.52;;;17.02;;
41426;SDS011;27171;51.812;19.514;2023-12-04T04:05:25;30.58;;;17.17;;
41426;SDS011;27171;51.812;19.514;2023-12-04T04:08:26;29.40;;;16.33;;
41426;SDS011;27171;51.812;19.514;2023-12-04T04:11:27;30.30;;;18.02;;
41426;SDS011;27171;51.812;19.514;2023-12-04T04:14:29;31.55;;;17.30;;
41426;SDS011;27171;51.812;19.514;2023-12-04T04:17:30;30.95;;;17.33;;
41426;SDS011;27171;51.812;19.514;2023-12-04T04:20:31;28.83;;;16.45;;
41426;SDS011;27171;51.812;19.514;2023-12-04T04:23:32;33.88;;;18.45;;
41426;SDS011;27171;51.812;19.514;2023-12-04T04:26:34;31.85;;;17.35;;
41426;SDS011;27171;51.812;19.514;2023-12-04T04:29:35;31.00;;;17.25;;
41426;SDS011;27171;51.812;19.514;2023-12-04T04:32:36;34.13;;;18.70;;
41426;SDS011;27171;51.812;19.514;2023-12-04T04:35:37;34.47;;;18.70;;
41426;SDS011;27171;51.812;19.514;2023-12-04T04:38:39;29.02;;;15.52;;
41426;SDS011;27171;51.812;19.514;2023-12-04T04:41:40;30.30;;;16.13;;
41426;SDS011;27171;51.812;19.514;2023-12-04T04:44:41;31.27;;;18.40;;
41426;SDS011;27171;51.812;19.514;2023-12-04T04:47:42;28.67;;;16.60;;
41426;SDS011;27171;51.812;19.514;2023-12-04T04:50:44;30.75;;;17.75;;
41426;SDS011;27171;51.812;19.514;2023-12-04T04:53:45;30.58;;;18.17;;
41426;SDS011;27171;51.812;19.514;2023-12-04T04:56:46;31.17;;;17.52;;
41426;SDS011;27171;51.812;19.514;2023-12-04T04:59:47;31.15;;;18.60;;
41426;SDS011;27171;51.812;19.514;2023-12-04T05:02:48;29.20;;;18.23;;
41426;SDS011;27171;51.812;19.514;2023-12-04T05:05:49;34.70;;;18.58;;
41426;SDS011;27171;51.812;19.514;2023-12-04T05:08:51;31.77;;;18.65;;
41426;SDS011;27171;51.812;19.514;2023-12-04T05:11:52;34.03;;;19.02;;
41426;SDS011;27171;51.812;19.514;2023-12-04T05:14:53;35.25;;;19.17;;
41426;SDS011;27171;51.812;19.514;2023-12-04T05:17:55;34.78;;;20.27;;
41426;SDS011;27171;51.812;19.514;2023-12-04T05:20:56;31.45;;;19.67;;
41426;SDS011;27171;51.812;19.514;2023-12-04T05:23:57;33.67;;;18.05;;
41426;SDS011;27171;51.812;19.514;2023-12-04T05:26:58;31.98;;;19.20;;
41426;SDS011;27171;51.812;19.514;2023-12-04T05:30:00;31.05;;;17.75;;
41426;SDS011;27171;51.812;19.514;2023-12-04T05:33:01;32.53;;;17.90;;
41426;SDS011;27171;51.812;19.514;2023-12-04T05:36:02;34.00;;;18.40;;
41426;SDS011;27171;51.812;19.514;2023-12-04T05:39:04;34.60;;;18.75;;
41426;SDS011;27171;51.812;19.514;2023-12-04T05:42:05;31.77;;;18.15;;
41426;SDS011;27171;51.812;19.514;2023-12-04T05:45:06;31.33;;;17.92;;
41426;SDS011;27171;51.812;19.514;2023-12-04T05:48:08;32.25;;;18.08;;
41426;SDS011;27171;51.812;19.514;2023-12-04T05:51:09;34.15;;;19.55;;
41426;SDS011;27171;51.812;19.514;2023-12-04T05:54:11;33.05;;;18.80;;
41426;SDS011;27171;51.812;19.514;2023-12-04T05:57:12;35.60;;;19.70;;
41426;SDS011;27171;51.812;19.514;2023-12-04T06:00:13;33.38;;;18.70;;
41426;SDS011;27171;51.812;19.514;2023-12-04T06:03:14;33.13;;;18.80;;
41426;SDS011;27171;51.812;19.514;2023-12-04T06:06:16;33.00;;;17.77;;
41426;SDS011;27171;51.812;19.514;2023-12-04T06:09:17;31.33;;;17.95;;
41426;SDS011;27171;51.812;19.514;2023-12-04T06:12:18;32.40;;;18.55;;
41426;SDS011;27171;51.812;19.514;2023-12-04T06:15:19;29.77;;;17.85;;
41426;SDS011;27171;51.812;19.514;2023-12-04T06:18:20;30.85;;;16.88;;
41426;SDS011;27171;51.812;19.514;2023-12-04T06:21:22;31.98;;;17.85;;
41426;SDS011;27171;51.812;19.514;2023-12-04T06:24:23;32.65;;;18.85;;
41426;SDS011;27171;51.812;19.514;2023-12-04T06:27:24;34.30;;;19.30;;
41426;SDS011;27171;51.812;19.514;2023-12-04T06:30:26;29.88;;;19.02;;
41426;SDS011;27171;51.812;19.514;2023-12-04T06:33:27;33.70;;;19.80;;
41426;SDS011;27171;51.812;19.514;2023-12-04T06:36:29;31.55;;;17.55;;
41426;SDS011;27171;51.812;19.514;2023-12-04T06:39:35;36.58;;;20.60;;
41426;SDS011;27171;51.812;19.514;2023-12-04T06:42:38;33.33;;;19.35;;
41426;SDS011;27171;51.812;19.514;2023-12-04T06:45:40;34.22;;;19.05;;
41426;SDS011;27171;51.812;19.514;2023-12-04T06:48:41;32.17;;;17.63;;
41426;SDS011;27171;51.812;19.514;2023-12-04T06:51:44;31.02;;;17.17;;
41426;SDS011;27171;51.812;19.514;2023-12-04T06:54:45;34.00;;;20.05;;
41426;SDS011;27171;51.812;19.514;2023-12-04T06:57:46;32.00;;;18.77;;
41426;SDS011;27171;51.812;19.514;2023-12-04T07:00:47;31.08;;;18.02;;
41426;SDS011;27171;51.812;19.514;2023-12-04T07:03:48;34.10;;;18.73;;
41426;SDS011;27171;51.812;19.514;2023-12-04T07:06:50;31.05;;;17.88;;
41426;SDS011;27171;51.812;19.514;2023-12-04T07:09:51;30.15;;;18.05;;
41426;SDS011;27171;51.812;19.514;2023-12-04T07:12:52;31.60;;;18.52;;
41426;SDS011;27171;51.812;19.514;2023-12-04T07:15:53;29.45;;;17.75;;
41426;SDS011;27171;51.812;19.514;2023-12-04T07:18:54;29.65;;;17.02;;
41426;SDS011;27171;51.812;19.514;2023-12-04T07:21:55;28.30;;;16.50;;
41426;SDS011;27171;51.812;19.514;2023-12-04T07:24:56;29.40;;;16.92;;
41426;SDS011;27171;51.812;19.514;2023-12-04T07:27:58;26.67;;;15.82;;
41426;SDS011;27171;51.812;19.514;2023-12-04T07:30:59;31.50;;;17.15;;
41426;SDS011;27171;51.812;19.514;2023-12-04T07:34:00;32.58;;;17.77;;
41426;SDS011;27171;51.812;19.514;2023-12-04T07:37:02;31.73;;;18.15;;
41426;SDS011;27171;51.812;19.514;2023-12-04T07:40:03;29.73;;;17.13;;
41426;SDS011;27171;51.812;19.514;2023-12-04T07:43:05;26.85;;;16.60;;
41426;SDS011;27171;51.812;19.514;2023-12-04T07:46:06;29.30;;;17.05;;
41426;SDS011;27171;51.812;19.514;2023-12-04T07:49:10;28.75;;;16.92;;
41426;SDS011;27171;51.812;19.514;2023-12-04T07:52:11;26.90;;;16.95;;
41426;SDS011;27171;51.812;19.514;2023-12-04T07:55:12;29.95;;;18.48;;
41426;SDS011;27171;51.812;19.514;2023-12-04T07:58:13;28.95;;;17.23;;
41426;SDS011;27171;51.812;19.514;2023-12-04T08:01:15;29.13;;;17.20;;
41426;SDS011;27171;51.812;19.514;2023-12-04T08:04:16;30.00;;;17.00;;
41426;SDS011;27171;51.812;19.514;2023-12-04T08:07:17;27.90;;;16.42;;
41426;SDS011;27171;51.812;19.514;2023-12-04T08:10:18;33.97;;;19.27;;
41426;SDS011;27171;51.812;19.514;2023-12-04T08:13:19;28.92;;;16.63;;
41426;SDS011;27171;51.812;19.514;2023-12-04T08:16:20;26.35;;;16.23;;
41426;SDS011;27171;51.812;19.514;2023-12-04T08:19:22;27.08;;;16.83;;
41426;SDS011;27171;51.812;19.514;2023-12-04T08:22:23;29.67;;;18.25;;
41426;SDS011;27171;51.812;19.514;2023-12-04T08:25:24;26.00;;;17.27;;
41426;SDS011;27171;51.812;19.514;2023-12-04T08:28:25;29.85;;;18.75;;
41426;SDS011;27171;51.812;19.514;2023-12-04T08:31:26;30.05;;;19.27;;
41426;SDS011;27171;51.812;19.514;2023-12-04T08:34:27;29.33;;;18.25;;
41426;SDS011;27171;51.812;19.514;2023-12-04T08:37:29;32.90;;;19.50;;
41426;SDS011;27171;51.812;19.514;2023-12-04T08:40:30;33.85;;;20.30;;
41426;SDS011;27171;51.812;19.514;2023-12-04T08:43:31;35.72;;;20.67;;
41426;SDS011;27171;51.812;19.514;2023-12-04T08:46:32;32.78;;;20.80;;
41426;SDS011;27171;51.812;19.514;2023-12-04T08:49:33;37.50;;;22.00;;
41426;SDS011;27171;51.812;19.514;2023-12-04T08:52:34;35.47;;;21.13;;
41426;SDS011;27171;51.812;19.514;2023-12-04T08:55:35;36.25;;;22.42;;
41426;SDS011;27171;51.812;19.514;2023-12-04T08:58:37;32.92;;;20.33;;
41426;SDS011;27171;51.812;19.514;2023-12-04T09:01:38;34.60;;;20.85;;
41426;SDS011;27171;51.812;19.514;2023-12-04T09:04:39;33.10;;;20.95;;
41426;SDS011;27171;51.812;19.514;2023-12-04T09:07:41;34.20;;;20.10;;
41426;SDS011;27171;51.812;19.514;2023-12-04T09:10:42;32.00;;;20.63;;
41426;SDS011;27171;51.812;19.514;2023-12-04T09:13:43;34.20;;;19.98;;
41426;SDS011;27171;51.812;19.514;2023-12-04T09:16:44;33.78;;;20.92;;
41426;SDS011;27171;51.812;19.514;2023-12-04T09:19:45;34.15;;;20.70;;
41426;SDS011;27171;51.812;19.514;2023-12-04T09:22:46;29.95;;;19.42;;
41426;SDS011;27171;51.812;19.514;2023-12-04T09:25:48;30.85;;;19.60;;
41426;SDS011;27171;51.812;19.514;2023-12-04T09:28:49;30.45;;;19.67;;
41426;SDS011;27171;51.812;19.514;2023-12-04T09:31:53;29.40;;;19.25;;
41426;SDS011;27171;51.812;19.514;2023-12-04T09:34:54;31.63;;;19.50;;
41426;SDS011;27171;51.812;19.514;2023-12-04T09:37:55;31.38;;;19.77;;
41426;SDS011;27171;51.812;19.514;2023-12-04T09:41:00;29.48;;;18.10;;
41426;SDS011;27171;51.812;19.514;2023-12-04T09:44:02;30.60;;;17.58;;
41426;SDS011;27171;51.812;19.514;2023-12-04T09:47:04;27.85;;;17.05;;
41426;SDS011;27171;51.812;19.514;2023-12-04T09:50:06;27.90;;;18.10;;
41426;SDS011;27171;51.812;19.514;2023-12-04T09:53:10;28.45;;;18.10;;
41426;SDS011;27171;51.812;19.514;2023-12-04T09:56:11;26.83;;;17.83;;
41426;SDS011;27171;51.812;19.514;2023-12-04T09:59:14;24.70;;;17.45;;
41426;SDS011;27171;51.812;19.514;2023-12-04T10:02:17;28.20;;;17.50;;
41426;SDS011;27171;51.812;19.514;2023-12-04T10:05:19;24.08;;;15.82;;
41426;SDS011;27171;51.812;19.514;2023-12-04T10:08:21;26.90;;;17.48;;
41426;SDS011;27171;51.812;19.514;2023-12-04T10:11:22;23.08;;;16.17;;
41426;SDS011;27171;51.812;19.514;2023-12-04T10:14:23;26.08;;;17.73;;
41426;SDS011;27171;51.812;19.514;2023-12-04T10:17:24;24.10;;;15.80;;
41426;SDS011;27171;51.812;19.514;2023-12-04T10:20:35;24.23;;;17.15;;
41426;SDS011;27171;51.812;19.514;2023-12-04T10:26:49;27.00;;;17.40;;
41426;SDS011;27171;51.812;19.514;2023-12-04T10:29:50;22.27;;;14.85;;
41426;SDS011;27171;51.812;19.514;2023-12-04T10:32:55;24.73;;;16.02;;
41426;SDS011;27171;51.812;19.514;2023-12-04T10:36:11;27.48;;;16.73;;
41426;SDS011;27171;51.812;19.514;2023-12-04T10:39:13;24.08;;;15.90;;
41426;SDS011;27171;51.812;19.514;2023-12-04T10:42:26;25.75;;;15.98;;
41426;SDS011;27171;51.812;19.514;2023-12-04T10:45:29;23.63;;;15.43;;
41426;SDS011;27171;51.812;19.514;2023-12-04T10:48:30;24.27;;;15.73;;
41426;SDS011;27171;51.812;19.514;2023-12-04T10:51:32;22.83;;;14.13;;
41426;SDS011;27171;51.812;19.514;2023-12-04T10:54:33;21.45;;;14.25;;
41426;SDS011;27171;51.812;19.514;2023-12-04T10:57:37;20.25;;;13.23;;
41426;SDS011;27171;51.812;19.514;2023-12-04T11:00:44;19.35;;;13.02;;
41426;SDS011;27171;51.812;19.514;2023-12-04T11:03:47;21.05;;;13.27;;
41426;SDS011;27171;51.812;19.514;2023-12-04T11:06:49;22.30;;;14.43;;
41426;SDS011;27171;51.812;19.514;2023-12-04T11:09:53;22.92;;;15.15;;
41426;SDS011;27171;51.812;19.514;2023-12-04T11:12:57;23.80;;;14.30;;
41426;SDS011;27171;51.812;19.514;2023-12-04T11:16:09;23.58;;;15.40;;
41426;SDS011;27171;51.812;19.514;2023-12-04T11:19:28;20.98;;;13.68;;
41426;SDS011;27171;51.812;19.514;2023-12-04T11:22:39;19.17;;;13.32;;
41426;SDS011;27171;51.812;19.514;2023-12-04T11:25:42;21.67;;;13.70;;
41426;SDS011;27171;51.812;19.514;2023-12-04T11:28:44;20.67;;;13.07;;
41426;SDS011;27171;51.812;19.514;2023-12-04T11:31:47;21.63;;;13.57;;
41426;SDS011;27171;51.812;19.514;2023-12-04T11:34:53;21.77;;;14.93;;
41426;SDS011;27171;51.812;19.514;2023-12-04T11:37:55;22.17;;;14.73;;
41426;SDS011;27171;51.812;19.514;2023-12-04T11:40:58;24.48;;;15.07;;
41426;SDS011;27171;51.812;19.514;2023-12-04T11:43:59;23.13;;;15.13;;
41426;SDS011;27171;51.812;19.514;2023-12-04T11:47:04;28.95;;;17.23;;
41426;SDS011;27171;51.812;19.514;2023-12-04T11:50:07;31.95;;;17.90;;
41426;SDS011;27171;51.812;19.514;2023-12-04T11:53:10;28.27;;;18.17;;
41426;SDS011;27171;51.812;19.514;2023-12-04T11:56:11;26.73;;;17.45;;
41426;SDS011;27171;51.812;19.514;2023-12-04T11:59:13;24.80;;;16.60;;
41426;SDS011;27171;51.812;19.514;2023-12-04T12:02:15;27.58;;;18.40;;
41426;SDS011;27171;51.812;19.514;2023-12-04T12:05:16;24.90;;;17.15;;
41426;SDS011;27171;51.812;19.514;2023-12-04T12:08:17;28.40;;;18.40;;
41426;SDS011;27171;51.812;19.514;2023-12-04T12:11:19;27.25;;;17.52;;
41426;SDS011;27171;51.812;19.514;2023-12-04T12:14:21;29.25;;;18.55;;
41426;SDS011;27171;51.812;19.514;2023-12-04T12:17:22;23.65;;;14.95;;
41426;SDS011;27171;51.812;19.514;2023-12-04T12:20:23;21.92;;;14.50;;
41426;SDS011;27171;51.812;19.514;2023-12-04T12:23:24;23.63;;;14.57;;
41426;SDS011;27171;51.812;19.514;2023-12-04T12:26:27;19.70;;;13.18;;
41426;SDS011;27171;51.812;19.514;2023-12-04T12:29:29;24.27;;;14.18;;
41426;SDS011;27171;51.812;19.514;2023-12-04T12:32:33;20.38;;;14.32;;
41426;SDS011;27171;51.812;19.514;2023-12-04T12:35:34;20.70;;;14.93;;
41426;SDS011;27171;51.812;19.514;2023-12-04T12:38:36;23.42;;;15.70;;
41426;SDS011;27171;51.812;19.514;2023-12-04T12:41:37;26.08;;;16.15;;
41426;SDS011;27171;51.812;19.514;2023-12-04T12:44:39;23.75;;;15.20;;
41426;SDS011;27171;51.812;19.514;2023-12-04T12:47:42;21.75;;;15.43;;
41426;SDS011;27171;51.812;19.514;2023-12-04T12:50:44;22.58;;;15.60;;
41426;SDS011;27171;51.812;19.514;2023-12-04T12:53:48;26.25;;;16.13;;
41426;SDS011;27171;51.812;19.514;2023-12-04T12:56:49;24.95;;;16.52;;
41426;SDS011;27171;51.812;19.514;2023-12-04T12:59:50;28.08;;;17.95;;
41426;SDS011;27171;51.812;19.514;2023-12-04T13:02:52;30.33;;;18.02;;
41426;SDS011;27171;51.812;19.514;2023-12-04T13:05:53;28.77;;;17.33;;
41426;SDS011;27171;51.812;19.514;2023-12-04T13:08:54;26.10;;;16.42;;
41426;SDS011;27171;51.812;19.514;2023-12-04T13:11:55;30.38;;;17.95;;
41426;SDS011;27171;51.812;19.514;2023-12-04T13:14:57;29.42;;;17.77;;
41426;SDS011;27171;51.812;19.514;2023-12-04T13:17:58;29.33;;;17.20;;
41426;SDS011;27171;51.812;19.514;2023-12-04T13:20:59;29.25;;;18.95;;
41426;SDS011;27171;51.812;19.514;2023-12-04T13:24:00;29.85;;;19.48;;
41426;SDS011;27171;51.812;19.514;2023-12-04T13:27:01;34.35;;;20.02;;
41426;SDS011;27171;51.812;19.514;2023-12-04T13:30:03;30.05;;;18.23;;
41426;SDS011;27171;51.812;19.514;2023-12-04T13:33:08;29.88;;;17.92;;
41426;SDS011;27171;51.812;19.514;2023-12-04T13:36:09;24.55;;;15.85;;
41426;SDS011;27171;51.812;19.514;2023-12-04T13:39:11;21.90;;;15.13;;
41426;SDS011;27171;51.812;19.514;2023-12-04T13:42:13;23.85;;;15.13;;
41426;SDS011;27171;51.812;19.514;2023-12-04T13:45:15;26.67;;;16.20;;
41426;SDS011;27171;51.812;19.514;2023-12-04T13:48:16;30.30;;;16.38;;
41426;SDS011;27171;51.812;19.514;2023-12-04T13:51:17;31.08;;;18.67;;
41426;SDS011;27171;51.812;19.514;2023-12-04T13:54:19;29.10;;;18.00;;
41426;SDS011;27171;51.812;19.514;2023-12-04T13:57:20;33.80;;;19.60;;
41426;SDS011;27171;51.812;19.514;2023-12-04T14:00:21;31.88;;;19.67;;
41426;SDS011;27171;51.812;19.514;2023-12-04T14:03:23;28.52;;;18.00;;
41426;SDS011;27171;51.812;19.514;2023-12-04T14:06:24;29.27;;;18.10;;
41426;SDS011;27171;51.812;19.514;2023-12-04T14:09:25;28.48;;;16.35;;
41426;SDS011;27171;51.812;19.514;2023-12-04T14:12:26;28.42;;;17.00;;
41426;SDS011;27171;51.812;19.514;2023-12-04T14:15:27;27.80;;;16.75;;
41426;SDS011;27171;51.812;19.514;2023-12-04T14:18:28;27.30;;;17.40;;
41426;SDS011;27171;51.812;19.514;2023-12-04T14:21:30;24.35;;;15.95;;
41426;SDS011;27171;51.812;19.514;2023-12-04T14:24:31;24.60;;;14.63;;
41426;SDS011;27171;51.812;19.514;2023-12-04T14:27:32;27.77;;;16.48;;
41426;SDS011;27171;51.812;19.514;2023-12-04T14:30:33;32.42;;;18.55;;
41426;SDS011;27171;51.812;19.514;2023-12-04T14:33:34;36.58;;;22.70;;
41426;SDS011;27171;51.812;19.514;2023-12-04T14:36:35;36.40;;;22.25;;
41426;SDS011;27171;51.812;19.514;2023-12-04T14:39:36;34.67;;;21.67;;
41426;SDS011;27171;51.812;19.514;2023-12-04T14:42:38;35.47;;;20.23;;
41426;SDS011;27171;51.812;19.514;2023-12-04T14:45:39;32.47;;;20.23;;
41426;SDS011;27171;51.812;19.514;2023-12-04T14:48:40;31.55;;;19.42;;
41426;SDS011;27171;51.812;19.514;2023-12-04T14:51:41;33.67;;;20.70;;
41426;SDS011;27171;51.812;19.514;2023-12-04T14:54:42;46.28;;;25.35;;
41426;SDS011;27171;51.812;19.514;2023-12-04T14:57:43;60.42;;;31.80;;
41426;SDS011;27171;51.812;19.514;2023-12-04T15:00:47;74.97;;;37.50;;
41426;SDS011;27171;51.812;19.514;2023-12-04T15:03:48;69.18;;;37.97;;
41426;SDS011;27171;51.812;19.514;2023-12-04T15:06:49;72.57;;;36.85;;
41426;SDS011;27171;51.812;19.514;2023-12-04T15:09:50;71.93;;;39.45;;
41426;SDS011;27171;51.812;19.514;2023-12-04T15:12:51;50.90;;;29.30;;
41426;SDS011;27171;51.812;19.514;2023-12-04T15:15:52;43.05;;;23.30;;
41426;SDS011;27171;51.812;19.514;2023-12-04T15:18:53;39.22;;;23.58;;
41426;SDS011;27171;51.812;19.514;2023-12-04T15:21:55;48.05;;;25.70;;
41426;SDS011;27171;51.812;19.514;2023-12-04T15:24:56;43.72;;;24.70;;
41426;SDS011;27171;51.812;19.514;2023-12-04T15:27:57;55.10;;;31.48;;
41426;SDS011;27171;51.812;19.514;2023-12-04T15:30:58;58.33;;;32.80;;
41426;SDS011;27171;51.812;19.514;2023-12-04T15:34:00;52.78;;;30.70;;
41426;SDS011;27171;51.812;19.514;2023-12-04T15:37:02;48.58;;;27.38;;
41426;SDS011;27171;51.812;19.514;2023-12-04T15:40:03;45.60;;;26.50;;
41426;SDS011;27171;51.812;19.514;2023-12-04T15:43:05;46.17;;;27.65;;
41426;SDS011;27171;51.812;19.514;2023-12-04T15:46:07;52.20;;;29.75;;
41426;SDS011;27171;51.812;19.514;2023-12-04T15:49:08;53.70;;;31.08;;
41426;SDS011;27171;51.812;19.514;2023-12-04T15:52:10;48.95;;;29.42;;
41426;SDS011;27171;51.812;19.514;2023-12-04T15:55:11;48.63;;;27.75;;
41426;SDS011;27171;51.812;19.514;2023-12-04T15:58:12;55.72;;;29.88;;
41426;SDS011;27171;51.812;19.514;2023-12-04T16:01:14;53.00;;;31.38;;
41426;SDS011;27171;51.812;19.514;2023-12-04T16:04:15;60.78;;;32.40;;
41426;SDS011;27171;51.812;19.514;2023-12-04T16:07:16;56.33;;;30.58;;
41426;SDS011;27171;51.812;19.514;2023-12-04T16:10:17;68.47;;;35.72;;
41426;SDS011;27171;51.812;19.514;2023-12-04T16:13:18;73.05;;;34.60;;
41426;SDS011;27171;51.812;19.514;2023-12-04T16:16:19;72.38;;;37.42;;
41426;SDS011;27171;51.812;19.514;2023-12-04T16:19:20;64.60;;;35.28;;
41426;SDS011;27171;51.812;19.514;2023-12-04T16:22:22;76.97;;;39.67;;
41426;SDS011;27171;51.812;19.514;2023-12-04T16:25:23;74.57;;;39.55;;
41426;SDS011;27171;51.812;19.514;2023-12-04T16:28:24;69.50;;;38.13;;
41426;SDS011;27171;51.812;19.514;2023-12-04T16:31:26;83.57;;;42.50;;
41426;SDS011;27171;51.812;19.514;2023-12-04T16:34:27;82.47;;;43.05;;
41426;SDS011;27171;51.812;19.514;2023-12-04T16:37:29;96.55;;;44.67;;
41426;SDS011;27171;51.812;19.514;2023-12-04T16:40:30;87.18;;;47.08;;
41426;SDS011;27171;51.812;19.514;2023-12-04T16:43:31;95.80;;;47.50;;
41426;SDS011;27171;51.812;19.514;2023-12-04T16:46:32;78.88;;;42.78;;
41426;SDS011;27171;51.812;19.514;2023-12-04T16:49:33;89.88;;;46.00;;
41426;SDS011;27171;51.812;19.514;2023-12-04T16:52:35;75.80;;;40.78;;
41426;SDS011;27171;51.812;19.514;2023-12-04T16:55:36;76.47;;;40.45;;
41426;SDS011;27171;51.812;19.514;2023-12-04T16:58:37;77.43;;;38.58;;
41426;SDS011;27171;51.812;19.514;2023-12-04T17:01:42;87.15;;;43.13;;
41426;SDS011;27171;51.812;19.514;2023-12-04T17:04:43;81.68;;;39.85;;
41426;SDS011;27171;51.812;19.514;2023-12-04T17:07:44;79.80;;;38.60;;
41426;SDS011;27171;51.812;19.514;2023-12-04T17:10:46;68.10;;;35.40;;
41426;SDS011;27171;51.812;19.514;2023-12-04T17:13:47;74.82;;;37.80;;
41426;SDS011;27171;51.812;19.514;2023-12-04T17:16:48;61.00;;;32.88;;
41426;SDS011;27171;51.812;19.514;2023-12-04T17:19:49;63.60;;;35.28;;
41426;SDS011;27171;51.812;19.514;2023-12-04T17:22:50;66.18;;;32.83;;
41426;SDS011;27171;51.812;19.514;2023-12-04T17:25:52;59.13;;;33.47;;
41426;SDS011;27171;51.812;19.514;2023-12-04T17:28:53;56.08;;;31.20;;